createdAt,value
2022-12-14T00:01:29.912Z,97411.09
2022-12-14T00:03:57.018Z,97415.59
2022-12-14T00:06:26.747Z,97414.53
2022-12-14T00:08:56.530Z,97410.84
2022-12-14T00:11:23.817Z,97396.75
2022-12-14T00:13:58.936Z,97400.97
2022-12-14T00:16:28.591Z,97401.25
2022-12-14T00:18:57.233Z,97393.28
2022-12-14T00:21:24.659Z,97393.53
2022-12-14T00:23:52.733Z,97384.81
2022-12-14T00:26:26.082Z,97380.03
2022-12-14T00:28:54.822Z,97378.97
2022-12-14T00:31:23.940Z,97379.47
2022-12-14T00:33:51.624Z,97376.53
2022-12-14T00:36:18.890Z,97374.91
2022-12-14T00:38:45.801Z,97366.69
2022-12-14T00:41:13.167Z,97358.72
2022-12-14T00:43:39.970Z,97358.97
2022-12-14T00:46:07.437Z,97368.03
2022-12-14T00:48:35.042Z,97365.34
2022-12-14T00:51:02.229Z,97365.59
2022-12-14T00:53:29.124Z,97355.50
2022-12-14T00:55:55.836Z,97365.09
2022-12-14T00:58:25.268Z,97362.44
2022-12-14T01:01:04.262Z,97360.28
2022-12-14T01:03:33.473Z,97363.22
2022-12-14T01:06:00.616Z,97362.97
2022-12-14T01:08:35.246Z,97366.19
2022-12-14T01:11:07.118Z,97374.69
2022-12-14T01:13:34.693Z,97375.19
2022-12-14T01:16:19.613Z,97375.19
2022-12-14T01:18:46.410Z,97368.00
2022-12-14T01:21:22.034Z,97368.28
2022-12-14T01:23:52.949Z,97371.50
2022-12-14T01:26:20.175Z,97362.69
2022-12-14T01:28:51.554Z,97359.78
2022-12-14T01:31:21.256Z,97359.25
2022-12-14T01:33:48.691Z,97359.28
2022-12-14T01:36:21.430Z,97349.41
2022-12-14T01:38:53.728Z,97341.19
2022-12-14T01:41:32.422Z,97346.50
2022-12-14T01:44:01.563Z,97332.91
2022-12-14T01:46:35.307Z,97334.50
2022-12-14T01:49:25.583Z,97331.59
2022-12-14T01:52:13.991Z,97325.19
2022-12-14T01:54:49.128Z,97332.34
2022-12-14T01:57:19.069Z,97329.97
2022-12-14T01:59:47.461Z,97330.53
2022-12-14T02:02:16.131Z,97330.25
2022-12-14T02:04:50.136Z,97319.06
2022-12-14T02:07:17.681Z,97322.25
2022-12-14T02:09:46.941Z,97306.56
2022-12-14T02:12:20.482Z,97306.31
2022-12-14T02:14:48.190Z,97317.22
2022-12-14T02:17:16.582Z,97299.13
2022-12-14T02:19:46.921Z,97309.25
2022-12-14T02:22:38.567Z,97310.03
2022-12-14T02:25:33.653Z,97307.38
2022-12-14T02:28:03.347Z,97310.34
2022-12-14T02:30:37.317Z,97306.31
2022-12-14T02:33:39.066Z,97305.03
2022-12-14T02:36:13.650Z,97290.66
2022-12-14T02:39:19.306Z,97295.69
2022-12-14T02:42:10.344Z,97279.69
2022-12-14T02:45:15.769Z,97269.88
2022-12-14T02:47:51.100Z,97268.28
2022-12-14T02:50:31.945Z,97264.00
2022-12-14T02:53:34.228Z,97256.56
2022-12-14T02:56:07.144Z,97258.44
2022-12-14T02:58:38.993Z,97256.03
2022-12-14T03:01:12.337Z,97253.59
2022-12-14T03:03:40.767Z,97245.91
2022-12-14T03:06:26.084Z,97251.78
2022-12-14T03:09:17.055Z,97255.53
2022-12-14T03:11:56.161Z,97255.53
2022-12-14T03:14:31.498Z,97255.53
2022-12-14T03:17:10.457Z,97256.06
2022-12-14T03:19:46.117Z,97245.44
2022-12-14T03:22:25.572Z,97240.34
2022-12-14T03:25:00.815Z,97247.81
2022-12-14T03:27:32.836Z,97241.19
2022-12-14T03:30:04.812Z,97229.72
2022-12-14T03:32:35.434Z,97232.13
2022-12-14T03:35:08.123Z,97233.72
2022-12-14T03:37:40.324Z,97228.94
2022-12-14T03:40:10.518Z,97219.91
2022-12-14T03:43:02.817Z,97214.56
2022-12-14T03:45:39.428Z,97206.31
2022-12-14T03:48:31.832Z,97197.53
2022-12-14T03:51:01.579Z,97199.69
2022-12-14T03:53:46.500Z,97190.63
2022-12-14T03:56:22.306Z,97181.81
2022-12-14T03:59:04.555Z,97181.56
2022-12-14T04:01:43.454Z,97181.03
2022-12-14T04:04:39.528Z,97176.25
2022-12-14T04:07:15.655Z,97172.81
2022-12-14T04:10:00.009Z,97169.84
2022-12-14T04:12:53.047Z,97167.72
2022-12-14T04:15:50.818Z,97159.72
2022-12-14T04:18:57.545Z,97169.31
2022-12-14T04:21:32.375Z,97163.22
2022-12-14T04:24:23.891Z,97167.72
2022-12-14T04:27:01.029Z,97171.19
2022-12-14T04:29:50.975Z,97165.34
2022-12-14T04:32:23.807Z,97153.88
2022-12-14T04:34:57.281Z,97152.81
2022-12-14T04:37:27.675Z,97147.22
2022-12-14T04:40:14.682Z,97142.13
2022-12-14T04:42:51.907Z,97140.00
2022-12-14T04:45:25.843Z,97145.34
2022-12-14T04:48:00.058Z,97156.53
2022-12-14T04:50:31.525Z,97158.13
2022-12-14T04:53:04.352Z,97157.88
2022-12-14T04:55:38.503Z,97162.91
2022-12-14T04:58:13.932Z,97155.75
2022-12-14T05:00:56.327Z,97153.34
2022-12-14T05:03:32.247Z,97157.88
2022-12-14T05:06:06.969Z,97151.72
2022-12-14T05:08:45.977Z,97159.19
2022-12-14T05:11:53.264Z,97158.13
2022-12-14T05:14:21.426Z,97156.81
2022-12-14T05:16:49.650Z,97161.84
2022-12-14T05:19:16.869Z,97158.13
2022-12-14T05:21:49.712Z,97154.94
2022-12-14T05:24:17.066Z,97156.53
2022-12-14T05:26:44.668Z,97153.34
2022-12-14T05:29:11.585Z,97153.88
2022-12-14T05:31:38.582Z,97140.03
2022-12-14T05:34:05.388Z,97150.97
2022-12-14T05:36:32.112Z,97137.63
2022-12-14T05:38:58.887Z,97127.50
2022-12-14T05:41:25.738Z,97131.50
2022-12-14T05:43:52.724Z,97121.94
2022-12-14T05:46:19.461Z,97124.59
2022-12-14T05:48:49.387Z,97125.91
2022-12-14T05:51:16.962Z,97121.41
2022-12-14T05:53:43.866Z,97119.78
2022-12-14T05:56:12.071Z,97116.06
2022-12-14T05:58:39.384Z,97120.06
2022-12-14T06:01:11.644Z,97120.88
2022-12-14T06:03:42.741Z,97125.38
2022-12-14T06:06:11.567Z,97119.53
2022-12-14T06:08:45.983Z,97120.34
2022-12-14T06:11:15.439Z,97120.59
2022-12-14T06:13:42.684Z,97105.16
2022-12-14T06:16:14.059Z,97100.63
2022-12-14T06:18:55.862Z,97101.69
2022-12-14T06:21:32.822Z,97104.63
2022-12-14T06:24:00.098Z,97107.56
2022-12-14T06:26:29.472Z,97112.34
2022-12-14T06:28:57.105Z,97095.56
2022-12-14T06:31:29.535Z,97092.13
2022-12-14T06:33:59.140Z,97083.59
2022-12-14T06:36:46.729Z,97076.94
2022-12-14T06:39:16.593Z,97082.53
2022-12-14T06:41:44.111Z,97068.41
2022-12-14T06:44:14.161Z,97062.84
2022-12-14T06:46:43.167Z,97046.31
2022-12-14T06:49:18.952Z,97033.28
2022-12-14T06:51:45.970Z,97031.13
2022-12-14T06:54:14.146Z,97031.69
2022-12-14T06:56:42.323Z,97035.38
2022-12-14T06:59:10.111Z,97030.31
2022-12-14T07:01:38.332Z,97033.50
2022-12-14T07:04:06.277Z,97034.59
2022-12-14T07:06:36.466Z,97038.59
2022-12-14T07:09:05.541Z,97029.53
2022-12-14T07:11:33.421Z,97018.34
2022-12-14T07:14:01.144Z,97023.41
2022-12-14T07:16:29.307Z,97018.38
2022-12-14T07:18:56.622Z,97011.16
2022-12-14T07:21:23.779Z,97009.03
2022-12-14T07:23:55.123Z,97006.88
2022-12-14T07:26:25.679Z,97001.03
2022-12-14T07:28:53.579Z,97008.47
2022-12-14T07:31:26.001Z,97016.75
2022-12-14T07:33:54.901Z,97020.19
2022-12-14T07:36:23.606Z,97022.31
2022-12-14T07:38:51.832Z,97011.94
2022-12-14T07:41:23.674Z,97007.94
2022-12-14T07:43:51.719Z,97006.63
2022-12-14T07:46:21.552Z,97008.22
2022-12-14T07:48:51.521Z,97019.66
2022-12-14T07:51:22.150Z,97018.56
2022-12-14T07:53:50.098Z,97024.19
2022-12-14T07:56:38.279Z,97013.00
2022-12-14T07:59:08.310Z,97010.59
2022-12-14T08:01:36.899Z,97014.59
2022-12-14T08:04:09.797Z,97019.38
2022-12-14T08:06:37.673Z,97012.72
2022-12-14T08:09:06.373Z,97022.31
2022-12-14T08:11:33.347Z,97017.50
2022-12-14T08:14:02.463Z,97023.13
2022-12-14T08:16:31.479Z,97019.41
2022-12-14T08:18:59.492Z,97013.78
2022-12-14T08:21:27.195Z,97009.53
2022-12-14T08:23:54.910Z,97019.13
2022-12-14T08:26:22.508Z,97020.19
2022-12-14T08:28:49.611Z,97017.00
2022-12-14T08:31:19.148Z,97012.22
2022-12-14T08:33:46.809Z,96999.94
2022-12-14T08:36:16.281Z,97015.38
2022-12-14T08:38:43.330Z,97008.97
2022-12-14T08:41:14.741Z,97002.31
2022-12-14T08:43:41.572Z,97004.69
2022-12-14T08:46:09.810Z,97005.25
2022-12-14T08:48:36.976Z,97011.66
2022-12-14T08:51:05.947Z,97007.97
2022-12-14T08:53:33.119Z,97011.16
2022-12-14T08:56:05.090Z,97015.69
2022-12-14T08:58:31.846Z,97007.72
2022-12-14T09:01:07.934Z,97002.66
2022-12-14T09:03:35.105Z,97000.50
2022-12-14T09:06:06.971Z,96993.84
2022-12-14T09:08:35.299Z,96984.53
2022-12-14T09:11:03.727Z,96983.75
2022-12-14T09:13:31.405Z,96981.88
2022-12-14T09:16:07.886Z,96984.25
2022-12-14T09:18:35.717Z,96998.91
2022-12-14T09:21:03.015Z,96992.78
2022-12-14T09:23:32.137Z,96998.38
2022-12-14T09:26:08.131Z,96995.44
2022-12-14T09:28:37.020Z,97005.31
2022-12-14T09:31:10.741Z,97007.16
2022-12-14T09:33:37.852Z,97004.25
2022-12-14T09:36:12.275Z,97005.06
2022-12-14T09:38:40.780Z,96996.78
2022-12-14T09:41:26.415Z,97009.31
2022-12-14T09:44:33.526Z,97012.25
2022-12-14T09:47:13.206Z,97027.69
2022-12-14T09:50:03.038Z,97015.97
2022-12-14T09:52:37.098Z,97017.28
2022-12-14T09:55:11.816Z,97019.94
2022-12-14T09:57:41.811Z,97009.06
2022-12-14T10:00:18.965Z,97009.56
2022-12-14T10:03:08.524Z,97006.38
2022-12-14T10:05:42.250Z,97009.03
2022-12-14T10:08:08.899Z,97008.75
2022-12-14T10:10:59.820Z,97003.19
2022-12-14T10:13:58.354Z,97002.63
2022-12-14T10:16:32.130Z,96999.94
2022-12-14T10:19:11.671Z,97007.97
2022-12-14T10:21:50.893Z,96997.84
2022-12-14T10:24:24.041Z,96993.06
2022-12-14T10:26:53.441Z,97000.50
2022-12-14T10:29:41.699Z,97000.25
2022-12-14T10:32:29.550Z,97002.09
2022-12-14T10:34:57.114Z,97002.63
2022-12-14T10:37:31.325Z,97003.13
2022-12-14T10:40:12.683Z,96995.63
2022-12-14T10:42:55.632Z,97012.97
2022-12-14T10:45:40.869Z,97006.59
2022-12-14T10:48:42.672Z,97007.91
2022-12-14T10:51:30.776Z,96997.78
2022-12-14T10:54:12.688Z,96989.53
2022-12-14T10:56:43.259Z,96992.94
2022-12-14T10:59:36.975Z,96997.47
2022-12-14T11:02:17.480Z,96995.84
2022-12-14T11:04:59.255Z,97004.38
2022-12-14T11:07:37.987Z,97000.38
2022-12-14T11:10:26.885Z,96999.34
2022-12-14T11:13:08.901Z,97004.13
2022-12-14T11:15:40.939Z,96999.84
2022-12-14T11:18:17.129Z,97001.97
2022-12-14T11:21:00.534Z,96999.03
2022-12-14T11:23:46.919Z,96984.63
2022-12-14T11:26:26.721Z,96989.94
2022-12-14T11:28:55.859Z,96994.75
2022-12-14T11:31:34.429Z,96993.44
2022-12-14T11:34:03.376Z,96994.78
2022-12-14T11:36:41.783Z,96994.47
2022-12-14T11:39:14.612Z,96997.13
2022-12-14T11:41:47.227Z,96997.97
2022-12-14T11:44:13.916Z,96993.44
2022-12-14T11:46:58.767Z,96995.88
2022-12-14T11:49:31.634Z,96992.66
2022-12-14T11:52:09.545Z,97002.50
2022-12-14T11:54:39.302Z,97006.78
2022-12-14T11:57:11.992Z,97010.47
2022-12-14T11:59:47.594Z,97008.84
2022-12-14T12:02:20.546Z,97008.06
2022-12-14T12:04:53.981Z,96997.38
2022-12-14T12:07:41.467Z,96991.25
2022-12-14T12:10:17.210Z,96999.75
2022-12-14T12:13:04.855Z,97008.28
2022-12-14T12:15:40.111Z,97008.06
2022-12-14T12:18:40.350Z,97004.06
2022-12-14T12:21:28.428Z,97004.31
2022-12-14T12:24:03.553Z,97008.28
2022-12-14T12:26:37.536Z,97014.94
2022-12-14T12:29:22.396Z,97022.13
2022-12-14T12:32:06.052Z,97012.03
2022-12-14T12:34:56.947Z,97011.75
2022-12-14T12:37:32.802Z,97014.97
2022-12-14T12:40:13.704Z,97022.91
2022-12-14T12:42:46.391Z,97034.13
2022-12-14T12:45:20.884Z,97035.19
2022-12-14T12:47:59.169Z,97034.09
2022-12-14T12:50:36.773Z,97035.97
2022-12-14T12:53:10.396Z,97040.00
2022-12-14T12:55:42.360Z,97033.34
2022-12-14T12:58:19.262Z,97030.16
2022-12-14T13:00:51.626Z,97036.56
2022-12-14T13:03:27.542Z,97040.63
2022-12-14T13:06:11.400Z,97032.34
2022-12-14T13:08:43.522Z,97027.28
2022-12-14T13:11:28.189Z,97017.91
2022-12-14T13:14:03.666Z,97025.91
2022-12-14T13:16:36.327Z,97023.00
2022-12-14T13:19:49.621Z,97034.19
2022-12-14T13:22:15.541Z,97018.94
2022-12-14T13:24:45.725Z,97032.78
2022-12-14T13:27:37.571Z,97039.50
2022-12-14T13:30:17.588Z,97035.47
2022-12-14T13:33:12.411Z,97041.63
2022-12-14T13:36:13.435Z,97037.09
2022-12-14T13:39:06.416Z,97045.09
2022-12-14T13:41:58.140Z,97042.16
2022-12-14T13:44:44.021Z,97056.81
2022-12-14T13:47:15.621Z,97054.16
2022-12-14T13:50:11.375Z,97049.34
2022-12-14T13:52:44.502Z,97052.56
2022-12-14T13:55:32.428Z,97064.03
2022-12-14T13:58:17.236Z,97078.44
2022-12-14T14:00:50.065Z,97073.34
2022-12-14T14:03:35.822Z,97075.78
2022-12-14T14:06:08.927Z,97073.91
2022-12-14T14:08:41.765Z,97086.16
2022-12-14T14:11:36.288Z,97082.41
2022-12-14T14:14:15.894Z,97096.56
2022-12-14T14:16:46.649Z,97101.34
2022-12-14T14:19:25.638Z,97104.03
2022-12-14T14:22:27.647Z,97106.19
2022-12-14T14:24:59.846Z,97111.22
2022-12-14T14:27:39.507Z,97120.28
2022-12-14T14:30:29.549Z,97121.34
2022-12-14T14:33:20.001Z,97130.94
2022-12-14T14:35:43.618Z,97136.56
2022-12-14T14:38:28.044Z,97137.88
2022-12-14T14:41:16.170Z,97138.16
2022-12-14T14:43:54.038Z,97134.16
2022-12-14T14:46:31.947Z,97145.34
2022-12-14T14:48:58.956Z,97151.19
2022-12-14T14:51:28.591Z,97160.78
2022-12-14T14:54:54.094Z,97164.53
2022-12-14T14:57:34.717Z,97176.25
2022-12-14T15:00:02.932Z,97172.50
2022-12-14T15:02:32.530Z,97177.59
2022-12-14T15:05:17.902Z,97182.38
2022-12-14T15:07:47.464Z,97179.97
2022-12-14T15:10:53.636Z,97195.16
2022-12-14T15:13:26.048Z,97193.81
2022-12-14T15:15:56.211Z,97195.16
2022-12-14T15:18:31.162Z,97206.59
2022-12-14T15:21:07.883Z,97209.81
2022-12-14T15:23:36.777Z,97213.00
2022-12-14T15:26:16.313Z,97207.13
2022-12-14T15:28:47.754Z,97207.94
2022-12-14T15:31:14.901Z,97207.66
2022-12-14T15:33:43.802Z,97211.41
2022-12-14T15:36:16.174Z,97230.56
2022-12-14T15:38:52.582Z,97242.28
2022-12-14T15:41:20.905Z,97241.22
2022-12-14T15:43:50.193Z,97240.16
2022-12-14T15:46:24.194Z,97249.22
2022-12-14T15:49:00.197Z,97255.06
2022-12-14T15:51:32.187Z,97252.94
2022-12-14T15:54:02.263Z,97252.66
2022-12-14T15:56:40.668Z,97262.50
2022-12-14T15:59:19.623Z,97265.16
2022-12-14T16:01:54.379Z,97264.88
2022-12-14T16:04:27.794Z,97265.94
2022-12-14T16:07:09.518Z,97262.22
2022-12-14T16:10:06.865Z,97277.16
2022-12-14T16:12:45.411Z,97271.28
2022-12-14T16:15:28.123Z,97269.94
2022-12-14T16:18:02.785Z,97268.91
2022-12-14T16:20:32.578Z,97267.81
2022-12-14T16:23:06.194Z,97281.13
2022-12-14T16:25:36.914Z,97274.22
2022-12-14T16:28:32.823Z,97284.59
2022-12-14T16:31:00.305Z,97288.59
2022-12-14T16:33:29.777Z,97285.41
2022-12-14T16:36:10.014Z,97289.66
2022-12-14T16:39:03.796Z,97288.06
2022-12-14T16:41:41.992Z,97297.66
2022-12-14T16:44:20.642Z,97293.66
2022-12-14T16:47:14.490Z,97298.97
2022-12-14T16:49:43.130Z,97297.88
2022-12-14T16:52:09.805Z,97306.41
2022-12-14T16:54:38.333Z,97308.28
2022-12-14T16:57:24.202Z,97318.69
2022-12-14T17:00:25.229Z,97321.09
2022-12-14T17:03:04.904Z,97331.47
2022-12-14T17:05:40.935Z,97330.66
2022-12-14T17:08:08.035Z,97334.38
2022-12-14T17:10:35.115Z,97333.03
2022-12-14T17:13:03.774Z,97333.34
2022-12-14T17:15:33.972Z,97335.75
2022-12-14T17:18:03.842Z,97323.75
2022-12-14T17:20:36.573Z,97330.69
2022-12-14T17:23:04.490Z,97328.03
2022-12-14T17:25:32.381Z,97324.28
2022-12-14T17:27:59.795Z,97333.84
2022-12-14T17:30:28.515Z,97335.16
2022-12-14T17:32:55.622Z,97341.03
2022-12-14T17:35:26.026Z,97346.66
2022-12-14T17:37:52.966Z,97344.00
2022-12-14T17:40:19.750Z,97352.50
2022-12-14T17:42:51.888Z,97348.22
2022-12-14T17:45:28.195Z,97354.63
2022-12-14T17:47:55.939Z,97357.84
2022-12-14T17:50:23.509Z,97358.88
2022-12-14T17:52:50.506Z,97362.59
2022-12-14T17:55:19.863Z,97369.53
2022-12-14T17:57:47.144Z,97367.13
2022-12-14T18:00:38.678Z,97382.31
2022-12-14T18:03:06.220Z,97384.97
2022-12-14T18:05:33.737Z,97386.84
2022-12-14T18:08:00.390Z,97379.94
2022-12-14T18:10:27.618Z,97378.06
2022-12-14T18:12:55.525Z,97377.22
2022-12-14T18:15:26.980Z,97373.25
2022-12-14T18:17:54.232Z,97376.41
2022-12-14T18:20:23.544Z,97374.53
2022-12-14T18:22:50.702Z,97372.69
2022-12-14T18:25:33.311Z,97377.47
2022-12-14T18:28:01.998Z,97387.06
2022-12-14T18:30:35.079Z,97376.66
2022-12-14T18:33:03.870Z,97387.84
2022-12-14T18:35:33.652Z,97386.00
2022-12-14T18:38:00.910Z,97397.16
2022-12-14T18:40:30.301Z,97401.16
2022-12-14T18:42:57.548Z,97406.75
2022-12-14T18:45:31.127Z,97394.22
2022-12-14T18:47:59.274Z,97387.56
2022-12-14T18:50:26.792Z,97395.00
2022-12-14T18:52:55.546Z,97403.00
2022-12-14T18:55:31.636Z,97411.00
2022-12-14T18:58:00.772Z,97422.19
2022-12-14T19:00:33.529Z,97415.25
2022-12-14T19:03:02.478Z,97426.91
2022-12-14T19:05:30.928Z,97428.53
2022-12-14T19:07:59.059Z,97433.88
2022-12-14T19:10:29.608Z,97428.78
2022-12-14T19:12:57.900Z,97429.59
2022-12-14T19:15:28.317Z,97441.34
2022-12-14T19:17:57.690Z,97447.44
2022-12-14T19:20:27.715Z,97456.75
2022-12-14T19:22:59.856Z,97437.06
2022-12-14T19:25:26.522Z,97445.81
2022-12-14T19:30:44.276Z,97439.91
2022-12-14T19:33:11.274Z,97441.22
2022-12-14T19:35:44.950Z,97434.31
2022-12-14T19:38:14.725Z,97442.81
2022-12-14T19:40:42.635Z,97446.56
2022-12-14T19:43:10.538Z,97446.56
2022-12-14T19:45:49.707Z,97449.44
2022-12-14T19:48:20.092Z,97450.00
2022-12-14T19:50:49.056Z,97449.25
2022-12-14T19:53:23.000Z,97448.19
2022-12-14T19:55:52.633Z,97446.31
2022-12-14T19:58:21.873Z,97447.88
2022-12-14T20:00:49.824Z,97446.00
2022-12-14T20:03:17.003Z,97440.16
2022-12-14T20:05:58.663Z,97447.63
2022-12-14T20:08:28.772Z,97451.06
2022-12-14T20:10:57.192Z,97448.41
2022-12-14T20:13:25.949Z,97446.56
2022-12-14T20:16:00.545Z,97448.16
2022-12-14T20:18:29.326Z,97450.00
2022-12-14T20:21:29.172Z,97459.31
2022-12-14T20:24:02.816Z,97462.25
2022-12-14T20:26:31.400Z,97467.84
2022-12-14T20:29:01.404Z,97469.94
2022-12-14T20:31:28.719Z,97475.25
2022-12-14T20:33:59.757Z,97478.44
2022-12-14T20:36:27.464Z,97487.53
2022-12-14T20:38:57.557Z,97481.91
2022-12-14T20:41:30.067Z,97488.03
2022-12-14T20:43:59.075Z,97484.81
2022-12-14T20:46:53.958Z,97486.16
2022-12-14T20:49:21.404Z,97485.91
2022-12-14T20:51:49.167Z,97478.69
2022-12-14T20:54:23.877Z,97478.09
2022-12-14T20:56:50.629Z,97476.25
2022-12-14T20:59:17.583Z,97467.47
2022-12-14T21:01:46.833Z,97472.06
2022-12-14T21:04:17.297Z,97466.22
2022-12-14T21:06:44.076Z,97473.75
2022-12-14T21:09:14.092Z,97475.00
2022-12-14T21:12:05.649Z,97482.72
2022-12-14T21:14:35.020Z,97481.91
2022-12-14T21:17:02.277Z,97486.66
2022-12-14T21:19:29.639Z,97479.19
2022-12-14T21:21:56.599Z,97484.31
2022-12-14T21:24:53.177Z,97477.91
2022-12-14T21:27:23.026Z,97481.31
2022-12-14T21:29:51.058Z,97482.66
2022-12-14T21:32:18.751Z,97476.25
2022-12-14T21:34:46.338Z,97487.66
2022-12-14T21:37:13.743Z,97480.41
2022-12-14T21:39:41.790Z,97487.91
2022-12-14T21:42:10.379Z,97487.09
2022-12-14T21:44:37.592Z,97503.25
2022-12-14T21:47:06.482Z,97491.31
2022-12-14T21:49:36.225Z,97494.78
2022-12-14T21:52:07.581Z,97500.91
2022-12-14T21:54:36.194Z,97502.81
2022-12-14T21:57:22.152Z,97504.44
2022-12-14T21:59:49.106Z,97501.69
2022-12-14T22:02:16.041Z,97510.81
2022-12-14T22:04:46.630Z,97509.13
2022-12-14T22:07:16.262Z,97505.91
2022-12-14T22:09:43.722Z,97501.69
2022-12-14T22:12:17.923Z,97510.69
2022-12-14T22:14:44.809Z,97508.84
2022-12-14T22:17:12.989Z,97513.97
2022-12-14T22:19:39.717Z,97514.53
2022-12-14T22:22:06.568Z,97504.72
2022-12-14T22:24:33.375Z,97512.66
2022-12-14T22:27:00.298Z,97512.84
2022-12-14T22:29:27.118Z,97508.34
2022-12-14T22:31:53.922Z,97509.44
2022-12-14T22:34:22.713Z,97512.91
2022-12-14T22:36:52.514Z,97515.22
2022-12-14T22:39:19.832Z,97510.66
2022-12-14T22:41:48.380Z,97511.97
2022-12-14T22:44:15.206Z,97514.34
2022-12-14T22:46:41.954Z,97514.13
2022-12-14T22:49:08.897Z,97521.09
2022-12-14T22:51:35.888Z,97520.81
2022-12-14T22:54:02.869Z,97520.59
2022-12-14T22:56:43.416Z,97524.00
2022-12-14T22:59:15.782Z,97520.22
2022-12-14T23:01:42.903Z,97521.78
2022-12-14T23:04:16.927Z,97526.06
2022-12-14T23:06:43.729Z,97529.03
2022-12-14T23:09:28.940Z,97526.47
2022-12-14T23:12:19.669Z,97522.94
2022-12-14T23:15:06.861Z,97516.06
2022-12-14T23:17:52.764Z,97514.00
2022-12-14T23:20:38.330Z,97505.22
2022-12-14T23:23:25.533Z,97506.03
2022-12-14T23:26:11.368Z,97511.34
2022-12-14T23:28:57.021Z,97510.72
2022-12-14T23:31:42.537Z,97513.34
2022-12-14T23:34:27.904Z,97517.63
2022-12-14T23:37:18.145Z,97524.31
2022-12-14T23:40:06.293Z,97532.31
2022-12-14T23:42:53.888Z,97536.59
2022-12-14T23:45:39.487Z,97543.50
2022-12-14T23:48:25.068Z,97545.81
2022-12-14T23:51:10.555Z,97528.06
2022-12-14T23:53:55.893Z,97537.44
2022-12-14T23:56:41.298Z,97540.66
2022-12-14T23:59:31.977Z,97539.84
